createdAt,value
2017-12-31T00:00:25.317Z,1001.17
2017-12-31T00:01:52.649Z,1001.23
2017-12-31T00:03:19.763Z,1001.31
2017-12-31T00:04:47.007Z,1001.35
2017-12-31T00:06:14.459Z,1001.39
2017-12-31T00:07:41.604Z,1001.44
2017-12-31T00:09:08.940Z,1001.43
2017-12-31T00:10:36.207Z,1001.48
2017-12-31T00:12:03.261Z,1001.48
2017-12-31T00:13:30.362Z,1001.52
2017-12-31T00:14:57.654Z,1001.56
2017-12-31T00:16:24.845Z,1001.56
2017-12-31T00:17:52.160Z,1001.56
2017-12-31T00:19:19.413Z,1001.54
2017-12-31T00:20:46.747Z,1001.57
2017-12-31T00:22:13.936Z,1001.70
2017-12-31T00:23:41.147Z,1001.79
2017-12-31T00:25:08.408Z,1001.85
2017-12-31T00:26:35.728Z,1001.88
2017-12-31T00:28:03.215Z,1001.97
2017-12-31T00:29:30.230Z,1002.00
2017-12-31T00:30:57.441Z,1002.05
2017-12-31T00:32:24.646Z,1002.03
2017-12-31T00:33:51.882Z,1001.99
2017-12-31T00:35:19.034Z,1002.02
2017-12-31T00:36:46.245Z,1002.03
2017-12-31T00:38:13.320Z,1002.04
2017-12-31T00:39:40.416Z,1001.98
2017-12-31T00:41:07.620Z,1002.01
2017-12-31T00:42:34.972Z,1002.06
2017-12-31T00:44:02.170Z,1002.05
2017-12-31T00:45:29.504Z,1002.06
2017-12-31T00:46:56.619Z,1002.10
2017-12-31T00:48:23.868Z,1002.14
2017-12-31T00:49:50.960Z,1002.16
2017-12-31T00:51:18.341Z,1002.15
2017-12-31T00:52:45.586Z,1002.15
2017-12-31T00:54:12.954Z,1002.17
2017-12-31T00:55:40.102Z,1002.18
2017-12-31T00:57:07.333Z,1002.22
2017-12-31T00:58:34.542Z,1002.26
2017-12-31T01:00:01.657Z,1002.29
2017-12-31T01:01:28.878Z,1002.35
2017-12-31T01:02:56.120Z,1002.35
2017-12-31T01:04:23.404Z,1002.44
2017-12-31T01:05:50.761Z,1002.45
2017-12-31T01:07:17.974Z,1002.52
2017-12-31T01:08:45.337Z,1002.54
2017-12-31T01:10:12.214Z,1002.54
2017-12-31T01:11:39.444Z,1002.62
2017-12-31T01:13:06.682Z,1002.71
2017-12-31T01:14:33.861Z,1002.70
2017-12-31T01:16:01.124Z,1002.78
2017-12-31T01:17:28.409Z,1002.79
2017-12-31T01:18:55.586Z,1002.87
2017-12-31T01:20:22.930Z,1002.97
2017-12-31T01:21:50.154Z,1002.99
2017-12-31T01:23:17.439Z,1003.07
2017-12-31T01:24:44.723Z,1003.12
2017-12-31T01:26:12.096Z,1003.16
2017-12-31T01:27:39.291Z,1003.22
2017-12-31T01:29:06.496Z,1003.22
2017-12-31T01:30:33.609Z,1003.25
2017-12-31T01:32:00.835Z,1003.24
2017-12-31T01:33:28.218Z,1003.22
2017-12-31T01:34:55.468Z,1003.22
2017-12-31T01:36:22.787Z,1003.24
2017-12-31T01:37:49.893Z,1003.19
2017-12-31T01:39:17.161Z,1003.18
2017-12-31T01:40:44.330Z,1003.15
2017-12-31T01:42:11.755Z,1003.13
2017-12-31T01:43:38.972Z,1003.15
2017-12-31T01:45:06.211Z,1003.18
2017-12-31T01:46:33.491Z,1003.20
2017-12-31T01:48:00.766Z,1003.25
2017-12-31T01:49:27.950Z,1003.23
2017-12-31T01:50:55.328Z,1003.22
2017-12-31T01:52:22.479Z,1003.27
2017-12-31T01:53:49.560Z,1003.21
2017-12-31T01:55:16.912Z,1003.17
2017-12-31T01:56:44.131Z,1003.16
2017-12-31T01:58:11.385Z,1003.20
2017-12-31T01:59:38.680Z,1003.25
2017-12-31T02:01:05.887Z,1003.25
2017-12-31T02:02:33.115Z,1003.26
2017-12-31T02:04:00.167Z,1003.30
2017-12-31T02:05:27.540Z,1003.30
2017-12-31T02:06:54.785Z,1003.34
2017-12-31T02:08:21.993Z,1003.35
2017-12-31T02:09:49.095Z,1003.31
2017-12-31T02:11:16.388Z,1003.35
2017-12-31T02:12:43.442Z,1003.44
2017-12-31T02:14:10.886Z,1003.48
2017-12-31T02:15:38.297Z,1003.48
2017-12-31T02:17:05.656Z,1003.49
2017-12-31T02:18:32.750Z,1003.51
2017-12-31T02:19:59.996Z,1003.54
2017-12-31T02:21:27.238Z,1003.58
2017-12-31T02:22:54.504Z,1003.58
2017-12-31T02:24:21.926Z,1003.53
2017-12-31T02:25:49.197Z,1003.54
2017-12-31T02:27:16.532Z,1003.55
2017-12-31T02:28:43.667Z,1003.55
2017-12-31T02:30:11.070Z,1003.55
2017-12-31T02:31:38.221Z,1003.57
2017-12-31T02:33:05.424Z,1003.66
2017-12-31T02:34:32.689Z,1003.72
2017-12-31T02:35:59.921Z,1003.76
2017-12-31T02:37:27.248Z,1003.82
2017-12-31T02:38:54.523Z,1003.80
2017-12-31T02:40:21.703Z,1003.85
2017-12-31T02:41:49.227Z,1003.85
2017-12-31T02:43:16.398Z,1003.85
2017-12-31T02:44:43.535Z,1003.83
2017-12-31T02:46:10.710Z,1003.85
2017-12-31T02:47:37.990Z,1003.88
2017-12-31T02:49:05.144Z,1003.90
2017-12-31T02:50:32.654Z,1003.94
2017-12-31T02:51:59.787Z,1003.93
2017-12-31T02:53:27.058Z,1003.95
2017-12-31T02:54:54.312Z,1004.00
2017-12-31T02:56:21.606Z,1004.01
2017-12-31T02:57:48.864Z,1004.08
2017-12-31T02:59:15.931Z,1004.13
2017-12-31T03:00:43.010Z,1004.15
2017-12-31T03:02:10.181Z,1004.15
2017-12-31T03:03:37.271Z,1004.17
2017-12-31T03:05:04.445Z,1004.17
2017-12-31T03:06:31.711Z,1004.22
2017-12-31T03:07:58.969Z,1004.18
2017-12-31T03:09:26.311Z,1004.18
2017-12-31T03:10:53.387Z,1004.18
2017-12-31T03:12:20.802Z,1004.18
2017-12-31T03:13:48.030Z,1004.26
2017-12-31T03:15:15.235Z,1004.27
2017-12-31T03:16:42.449Z,1004.32
2017-12-31T03:18:09.808Z,1004.32
2017-12-31T03:19:37.175Z,1004.32
2017-12-31T03:21:04.181Z,1004.36
2017-12-31T03:22:31.491Z,1004.36
2017-12-31T03:23:58.858Z,1004.34
2017-12-31T03:25:25.896Z,1004.33
2017-12-31T03:26:53.169Z,1004.31
2017-12-31T03:28:20.488Z,1004.34
2017-12-31T03:29:47.677Z,1004.36
2017-12-31T03:31:14.739Z,1004.36
2017-12-31T03:32:41.811Z,1004.38
2017-12-31T03:34:09.028Z,1004.39
2017-12-31T03:35:36.299Z,1004.42
2017-12-31T03:37:03.670Z,1004.38
2017-12-31T03:38:30.979Z,1004.44
2017-12-31T03:39:58.353Z,1004.42
2017-12-31T03:41:25.610Z,1004.39
2017-12-31T03:42:52.874Z,1004.44
2017-12-31T03:44:20.103Z,1004.42
2017-12-31T03:45:47.267Z,1004.44
2017-12-31T03:47:14.206Z,1004.49
2017-12-31T03:48:41.625Z,1004.37
2017-12-31T03:50:08.938Z,1004.36
2017-12-31T03:51:36.196Z,1004.47
2017-12-31T03:53:03.581Z,1004.40
2017-12-31T03:54:30.740Z,1004.37
2017-12-31T03:55:58.009Z,1004.39
2017-12-31T03:57:25.314Z,1004.47
2017-12-31T03:58:52.806Z,1004.48
2017-12-31T04:00:20.011Z,1004.49
2017-12-31T04:01:47.218Z,1004.52
2017-12-31T04:03:14.331Z,1004.56
2017-12-31T04:04:41.601Z,1004.63
2017-12-31T04:06:08.892Z,1004.59
2017-12-31T04:07:36.245Z,1004.62
2017-12-31T04:09:03.661Z,1004.68
2017-12-31T04:10:30.842Z,1004.72
2017-12-31T04:11:58.141Z,1004.72
2017-12-31T04:13:25.292Z,1004.69
2017-12-31T04:14:52.687Z,1004.67
2017-12-31T04:16:19.972Z,1004.71
2017-12-31T04:17:47.623Z,1004.71
2017-12-31T04:19:15.005Z,1004.69
2017-12-31T04:20:41.989Z,1004.69
2017-12-31T04:22:09.490Z,1004.65
2017-12-31T04:23:36.684Z,1004.59
2017-12-31T04:25:03.825Z,1004.54
2017-12-31T04:26:31.153Z,1004.49
2017-12-31T04:27:58.505Z,1004.48
2017-12-31T04:29:25.749Z,1004.49
2017-12-31T04:30:53.089Z,1004.50
2017-12-31T04:32:20.298Z,1004.51
2017-12-31T04:33:47.558Z,1004.50
2017-12-31T04:35:14.794Z,1004.44
2017-12-31T04:36:41.792Z,1004.44
2017-12-31T04:38:09.184Z,1004.51
2017-12-31T04:39:36.635Z,1004.56
2017-12-31T04:41:04.071Z,1004.60
2017-12-31T04:42:31.263Z,1004.55
2017-12-31T04:43:58.443Z,1004.55
2017-12-31T04:45:25.702Z,1004.59
2017-12-31T04:46:53.108Z,1004.62
2017-12-31T04:48:20.601Z,1004.60
2017-12-31T04:49:47.705Z,1004.61
2017-12-31T04:51:15.098Z,1004.62
2017-12-31T04:52:42.081Z,1004.63
2017-12-31T04:54:09.470Z,1004.68
2017-12-31T04:55:36.773Z,1004.72
2017-12-31T04:57:03.925Z,1004.76
2017-12-31T04:58:31.361Z,1004.79
2017-12-31T04:59:58.578Z,1004.78
2017-12-31T05:01:25.963Z,1004.78
2017-12-31T05:02:53.252Z,1004.82
2017-12-31T05:04:20.468Z,1004.87
2017-12-31T05:05:47.561Z,1004.87
2017-12-31T05:07:14.697Z,1004.86
2017-12-31T05:08:42.074Z,1004.77
2017-12-31T05:10:09.107Z,1004.77
2017-12-31T05:11:36.400Z,1004.81
2017-12-31T05:13:03.755Z,1004.80
2017-12-31T05:14:31.073Z,1004.76
2017-12-31T05:15:58.340Z,1004.75
2017-12-31T05:17:25.538Z,1004.78
2017-12-31T05:18:52.858Z,1004.84
2017-12-31T05:20:19.895Z,1004.85
2017-12-31T05:21:47.083Z,1004.82
2017-12-31T05:23:14.015Z,1004.87
2017-12-31T05:24:41.232Z,1004.90
2017-12-31T05:26:08.629Z,1004.92
2017-12-31T05:27:35.819Z,1004.96
2017-12-31T05:29:03.118Z,1004.98
2017-12-31T05:30:30.379Z,1005.04
2017-12-31T05:31:57.645Z,1005.08
2017-12-31T05:33:25.010Z,1005.08
2017-12-31T05:34:52.692Z,1005.08
2017-12-31T05:36:20.064Z,1005.09
2017-12-31T05:37:47.190Z,1005.11
2017-12-31T05:39:14.453Z,1005.10
2017-12-31T05:40:41.811Z,1005.11
2017-12-31T05:42:09.187Z,1005.15
2017-12-31T05:43:36.462Z,1005.17
2017-12-31T05:45:03.637Z,1005.15
2017-12-31T05:46:30.782Z,1005.13
2017-12-31T05:47:58.240Z,1005.15
2017-12-31T05:49:25.396Z,1005.17
2017-12-31T05:50:52.626Z,1005.21
2017-12-31T05:52:20.052Z,1005.23
2017-12-31T05:53:47.151Z,1005.22
2017-12-31T05:55:14.461Z,1005.21
2017-12-31T05:56:41.723Z,1005.25
2017-12-31T05:58:09.107Z,1005.26
2017-12-31T05:59:36.478Z,1005.27
2017-12-31T06:01:03.570Z,1005.30
2017-12-31T06:02:30.783Z,1005.32
2017-12-31T06:03:57.933Z,1005.34
2017-12-31T06:05:25.248Z,1005.33
2017-12-31T06:06:52.158Z,1005.27
2017-12-31T06:08:19.492Z,1005.28
2017-12-31T06:09:46.512Z,1005.26
2017-12-31T06:11:13.780Z,1005.28
2017-12-31T06:12:41.066Z,1005.29
2017-12-31T06:14:08.315Z,1005.29
2017-12-31T06:15:35.453Z,1005.30
2017-12-31T06:17:02.573Z,1005.36
2017-12-31T06:18:29.762Z,1005.40
2017-12-31T06:19:56.887Z,1005.40
2017-12-31T06:21:24.180Z,1005.43
2017-12-31T06:22:51.566Z,1005.49
2017-12-31T06:24:18.920Z,1005.53
2017-12-31T06:25:46.098Z,1005.54
2017-12-31T06:27:13.090Z,1005.53
2017-12-31T06:28:40.443Z,1005.52
2017-12-31T06:30:07.577Z,1005.50
2017-12-31T06:31:34.892Z,1005.46
2017-12-31T06:33:02.198Z,1005.45
2017-12-31T06:34:29.247Z,1005.43
2017-12-31T06:35:56.673Z,1005.45
2017-12-31T06:37:23.777Z,1005.46
2017-12-31T06:38:51.125Z,1005.41
2017-12-31T06:40:18.064Z,1005.39
2017-12-31T06:41:45.217Z,1005.37
2017-12-31T06:43:12.385Z,1005.40
2017-12-31T06:44:39.640Z,1005.42
2017-12-31T06:46:06.984Z,1005.45
2017-12-31T06:47:34.285Z,1005.42
2017-12-31T06:49:01.475Z,1005.38
2017-12-31T06:50:28.655Z,1005.34
2017-12-31T06:51:55.983Z,1005.32
2017-12-31T06:53:23.349Z,1005.31
2017-12-31T06:54:50.548Z,1005.30
2017-12-31T06:56:17.661Z,1005.33
2017-12-31T06:57:44.874Z,1005.36
2017-12-31T06:59:11.935Z,1005.38
2017-12-31T07:00:38.988Z,1005.46
2017-12-31T07:02:06.361Z,1005.51
2017-12-31T07:03:33.324Z,1005.52
2017-12-31T07:05:00.345Z,1005.51
2017-12-31T07:06:27.844Z,1005.52
2017-12-31T07:07:54.974Z,1005.54
2017-12-31T07:09:22.209Z,1005.57
2017-12-31T07:10:49.559Z,1005.57
2017-12-31T07:12:16.655Z,1005.58
2017-12-31T07:13:43.793Z,1005.58
2017-12-31T07:15:11.200Z,1005.51
2017-12-31T07:16:38.361Z,1005.54
2017-12-31T07:18:05.353Z,1005.53
2017-12-31T07:19:32.358Z,1005.51
2017-12-31T07:20:59.686Z,1005.50
2017-12-31T07:22:23.917Z,1005.46
2017-12-31T07:23:54.103Z,1005.48
2017-12-31T07:25:21.524Z,1005.48
2017-12-31T07:26:48.714Z,1005.49
2017-12-31T07:28:15.883Z,1005.51
2017-12-31T07:29:42.986Z,1005.51
2017-12-31T07:31:10.345Z,1005.53
2017-12-31T07:32:37.568Z,1005.55
2017-12-31T07:34:04.400Z,1005.55
2017-12-31T07:35:31.659Z,1005.56
2017-12-31T07:36:58.768Z,1005.51
2017-12-31T07:38:26.124Z,1005.48
2017-12-31T07:39:53.207Z,1005.49
2017-12-31T07:41:20.246Z,1005.52
2017-12-31T07:42:47.518Z,1005.55
2017-12-31T07:44:14.716Z,1005.53
2017-12-31T07:45:41.943Z,1005.49
2017-12-31T07:47:09.275Z,1005.42
2017-12-31T07:48:36.255Z,1005.41
2017-12-31T07:50:03.525Z,1005.39
2017-12-31T07:51:30.670Z,1005.42
2017-12-31T07:52:57.962Z,1005.46
2017-12-31T07:54:25.260Z,1005.55
2017-12-31T07:55:52.278Z,1005.66
2017-12-31T07:57:18.812Z,1005.71
2017-12-31T07:58:45.849Z,1005.70
2017-12-31T08:00:13.005Z,1005.70
2017-12-31T08:01:40.328Z,1005.71
2017-12-31T08:03:07.533Z,1005.70
2017-12-31T08:04:34.769Z,1005.74
2017-12-31T08:06:02.032Z,1005.78
2017-12-31T08:07:29.222Z,1005.74
2017-12-31T08:08:56.474Z,1005.77
2017-12-31T08:10:23.820Z,1005.79
2017-12-31T08:11:51.110Z,1005.78
2017-12-31T08:13:18.276Z,1005.72
2017-12-31T08:14:45.467Z,1005.71
2017-12-31T08:16:12.372Z,1005.70
2017-12-31T08:17:39.478Z,1005.70
2017-12-31T08:19:06.336Z,1005.62
2017-12-31T08:20:33.547Z,1005.58
2017-12-31T08:22:00.892Z,1005.58
2017-12-31T08:23:28.033Z,1005.57
2017-12-31T08:24:55.294Z,1005.53
2017-12-31T08:26:22.274Z,1005.50
2017-12-31T08:27:49.538Z,1005.50
2017-12-31T08:29:16.585Z,1005.55
2017-12-31T08:30:43.572Z,1005.65
2017-12-31T08:32:10.742Z,1005.71
2017-12-31T08:33:37.898Z,1005.72
2017-12-31T08:35:05.105Z,1005.66
2017-12-31T08:36:32.408Z,1005.63
2017-12-31T08:37:59.696Z,1005.69
2017-12-31T08:39:27.037Z,1005.71
2017-12-31T08:40:54.043Z,1005.72
2017-12-31T08:42:21.183Z,1005.73
2017-12-31T08:43:48.459Z,1005.73
2017-12-31T08:45:15.688Z,1005.69
2017-12-31T08:46:42.758Z,1005.64
2017-12-31T08:48:10.192Z,1005.65
2017-12-31T08:49:37.239Z,1005.62
2017-12-31T08:51:04.520Z,1005.58
2017-12-31T08:52:31.953Z,1005.55
2017-12-31T08:53:59.119Z,1005.51
2017-12-31T08:55:26.481Z,1005.47
2017-12-31T08:56:53.605Z,1005.46
2017-12-31T08:58:20.823Z,1005.46
2017-12-31T08:59:48.124Z,1005.43
2017-12-31T09:01:15.296Z,1005.42
2017-12-31T09:02:42.316Z,1005.40
2017-12-31T09:04:09.452Z,1005.37
2017-12-31T09:05:36.646Z,1005.38
2017-12-31T09:07:03.949Z,1005.42
2017-12-31T09:08:31.076Z,1005.45
2017-12-31T09:09:58.317Z,1005.48
2017-12-31T09:11:25.508Z,1005.48
2017-12-31T09:12:52.785Z,1005.53
2017-12-31T09:14:20.001Z,1005.52
2017-12-31T09:15:47.207Z,1005.51
2017-12-31T09:17:14.523Z,1005.45
2017-12-31T09:18:41.683Z,1005.38
2017-12-31T09:20:08.690Z,1005.32
2017-12-31T09:21:36.078Z,1005.27
2017-12-31T09:23:03.225Z,1005.25
2017-12-31T09:24:30.485Z,1005.22
2017-12-31T09:25:57.733Z,1005.21
2017-12-31T09:27:24.913Z,1005.22
2017-12-31T09:28:52.233Z,1005.19
2017-12-31T09:30:19.146Z,1005.15
2017-12-31T09:31:46.373Z,1005.15
2017-12-31T09:33:13.165Z,1005.13
2017-12-31T09:34:40.420Z,1005.09
2017-12-31T09:36:07.554Z,1005.05
2017-12-31T09:37:34.784Z,1005.00
2017-12-31T09:39:01.873Z,1004.98
2017-12-31T09:40:29.165Z,1004.92
2017-12-31T09:41:56.414Z,1004.91
2017-12-31T09:43:23.802Z,1004.88
2017-12-31T09:44:51.153Z,1004.88
2017-12-31T09:46:18.301Z,1004.86
2017-12-31T09:47:45.473Z,1004.80
2017-12-31T09:49:12.532Z,1004.73
2017-12-31T09:50:39.755Z,1004.66
2017-12-31T09:52:07.131Z,1004.64
2017-12-31T09:53:34.387Z,1004.61
2017-12-31T09:55:01.588Z,1004.58
2017-12-31T09:56:29.006Z,1004.54
2017-12-31T09:57:56.159Z,1004.55
2017-12-31T09:59:23.424Z,1004.54
2017-12-31T10:00:50.553Z,1004.49
2017-12-31T10:02:18.099Z,1004.46
2017-12-31T10:03:45.255Z,1004.47
2017-12-31T10:05:12.079Z,1004.43
2017-12-31T10:06:39.205Z,1004.40
2017-12-31T10:08:06.517Z,1004.39
2017-12-31T10:09:33.784Z,1004.36
2017-12-31T10:11:00.862Z,1004.37
2017-12-31T10:12:28.228Z,1004.37
2017-12-31T10:13:55.380Z,1004.36
2017-12-31T10:15:22.721Z,1004.31
2017-12-31T10:16:49.819Z,1004.28
2017-12-31T10:18:16.898Z,1004.26
2017-12-31T10:19:44.066Z,1004.25
2017-12-31T10:21:11.298Z,1004.25
2017-12-31T10:22:38.585Z,1004.24
2017-12-31T10:24:05.957Z,1004.23
2017-12-31T10:25:32.989Z,1004.17
2017-12-31T10:27:00.406Z,1004.15
2017-12-31T10:28:27.677Z,1004.13
2017-12-31T10:29:55.042Z,1004.11
2017-12-31T10:31:22.212Z,1004.10
2017-12-31T10:32:49.310Z,1004.05
2017-12-31T10:34:16.556Z,1004.00
2017-12-31T10:35:43.600Z,1003.95
2017-12-31T10:37:10.820Z,1003.92
2017-12-31T10:38:38.046Z,1003.83
2017-12-31T10:40:05.388Z,1003.79
2017-12-31T10:41:32.620Z,1003.76
2017-12-31T10:42:59.746Z,1003.70
2017-12-31T10:44:27.227Z,1003.69
2017-12-31T10:45:54.321Z,1003.65
2017-12-31T10:47:21.684Z,1003.63
2017-12-31T10:48:48.888Z,1003.65
2017-12-31T10:50:15.881Z,1003.64
2017-12-31T10:51:42.862Z,1003.62
2017-12-31T10:53:10.224Z,1003.57
2017-12-31T10:54:37.593Z,1003.52
2017-12-31T10:56:04.939Z,1003.49
2017-12-31T10:57:32.067Z,1003.46
2017-12-31T10:58:59.313Z,1003.42
2017-12-31T11:00:26.781Z,1003.41
2017-12-31T11:01:54.001Z,1003.39
2017-12-31T11:03:21.012Z,1003.37
2017-12-31T11:04:48.199Z,1003.36
2017-12-31T11:06:15.493Z,1003.33
2017-12-31T11:07:42.680Z,1003.34
2017-12-31T11:09:10.096Z,1003.30
2017-12-31T11:10:37.377Z,1003.21
2017-12-31T11:12:04.675Z,1003.17
2017-12-31T11:13:31.905Z,1003.16
2017-12-31T11:14:59.309Z,1003.13
2017-12-31T11:16:26.466Z,1003.09
2017-12-31T11:17:53.744Z,1003.07
2017-12-31T11:19:20.910Z,1003.04
2017-12-31T11:20:47.932Z,1003.02
2017-12-31T11:22:15.080Z,1002.99
2017-12-31T11:23:42.221Z,1002.97
2017-12-31T11:25:09.545Z,1002.98
2017-12-31T11:26:36.855Z,1002.99
2017-12-31T11:28:04.236Z,1002.93
2017-12-31T11:29:31.372Z,1002.85
2017-12-31T11:30:58.361Z,1002.87
2017-12-31T11:32:25.219Z,1002.84
2017-12-31T11:33:52.321Z,1002.77
2017-12-31T11:35:19.053Z,1002.71
2017-12-31T11:36:46.335Z,1002.64
2017-12-31T11:38:13.583Z,1002.64
2017-12-31T11:39:40.773Z,1002.63
2017-12-31T11:41:08.190Z,1002.61
2017-12-31T11:42:35.555Z,1002.59
2017-12-31T11:44:02.744Z,1002.52
2017-12-31T11:45:29.882Z,1002.46
2017-12-31T11:46:57.234Z,1002.46
2017-12-31T11:48:24.475Z,1002.41
2017-12-31T11:49:51.682Z,1002.33
2017-12-31T11:51:18.726Z,1002.32
2017-12-31T11:52:45.999Z,1002.32
2017-12-31T11:54:13.026Z,1002.26
2017-12-31T11:55:40.357Z,1002.23
2017-12-31T11:57:07.386Z,1002.15
2017-12-31T11:58:34.703Z,1002.11
2017-12-31T12:00:01.906Z,1002.07
2017-12-31T12:01:29.239Z,1002.06
2017-12-31T12:02:56.504Z,1002.00
2017-12-31T12:04:23.775Z,1001.91
2017-12-31T12:05:50.794Z,1001.89
2017-12-31T12:07:17.975Z,1001.85
2017-12-31T12:08:45.035Z,1001.85
2017-12-31T12:10:12.242Z,1001.88
2017-12-31T12:11:39.175Z,1001.83
2017-12-31T12:13:06.190Z,1001.82
2017-12-31T12:14:33.405Z,1001.72
2017-12-31T12:16:00.960Z,1001.73
2017-12-31T12:17:28.144Z,1001.73
2017-12-31T12:18:55.412Z,1001.71
2017-12-31T12:20:22.526Z,1001.67
2017-12-31T12:21:49.628Z,1001.59
2017-12-31T12:23:16.808Z,1001.63
2017-12-31T12:24:43.807Z,1001.72
2017-12-31T12:26:11.092Z,1001.75
2017-12-31T12:27:38.190Z,1001.71
2017-12-31T12:29:05.574Z,1001.63
2017-12-31T12:30:32.696Z,1001.56
2017-12-31T12:32:00.104Z,1001.42
2017-12-31T12:33:27.275Z,1001.38
2017-12-31T12:34:54.579Z,1001.46
2017-12-31T12:36:21.799Z,1001.48
2017-12-31T12:37:48.798Z,1001.41
2017-12-31T12:39:16.041Z,1001.45
2017-12-31T12:40:43.241Z,1001.40
2017-12-31T12:42:10.541Z,1001.36
2017-12-31T12:43:37.932Z,1001.34
2017-12-31T12:45:05.153Z,1001.29
2017-12-31T12:46:32.411Z,1001.29
2017-12-31T12:47:59.805Z,1001.28
2017-12-31T12:49:26.936Z,1001.27
2017-12-31T12:50:54.135Z,1001.19
2017-12-31T12:52:21.562Z,1001.20
2017-12-31T12:53:48.889Z,1001.18
2017-12-31T12:55:16.163Z,1001.14
2017-12-31T12:56:43.242Z,1001.12
2017-12-31T12:58:10.570Z,1001.06
2017-12-31T12:59:37.887Z,1001.04
2017-12-31T13:01:05.174Z,1000.99
2017-12-31T13:02:32.604Z,1000.97
2017-12-31T13:04:00.036Z,1000.88
2017-12-31T13:05:27.344Z,1000.84
2017-12-31T13:06:54.748Z,1000.87
2017-12-31T13:08:22.105Z,1000.88
2017-12-31T13:09:49.463Z,1000.82
2017-12-31T13:11:16.697Z,1000.84
2017-12-31T13:12:44.044Z,1000.86
2017-12-31T13:14:11.293Z,1000.80
2017-12-31T13:15:38.890Z,1000.80
2017-12-31T13:17:05.989Z,1000.82
2017-12-31T13:18:33.348Z,1000.80
2017-12-31T13:20:00.706Z,1000.79
2017-12-31T13:21:27.921Z,1000.78
2017-12-31T13:22:55.097Z,1000.78
2017-12-31T13:24:22.411Z,1000.75
2017-12-31T13:25:49.662Z,1000.76
2017-12-31T13:27:16.868Z,1000.75
2017-12-31T13:28:44.190Z,1000.74
2017-12-31T13:30:11.543Z,1000.77
2017-12-31T13:31:38.905Z,1000.71
2017-12-31T13:33:06.006Z,1000.68
2017-12-31T13:34:33.368Z,1000.65
2017-12-31T13:36:00.723Z,1000.65
2017-12-31T13:37:27.989Z,1000.64
2017-12-31T13:38:55.235Z,1000.60
2017-12-31T13:40:22.572Z,1000.57
2017-12-31T13:41:49.944Z,1000.56
2017-12-31T13:43:17.356Z,1000.53
2017-12-31T13:44:44.708Z,1000.50
2017-12-31T13:46:11.842Z,1000.52
2017-12-31T13:47:40.030Z,1000.54
2017-12-31T13:49:06.151Z,1000.54
2017-12-31T13:50:33.472Z,1000.52
2017-12-31T13:52:00.885Z,1000.49
2017-12-31T13:53:28.344Z,1000.49
2017-12-31T13:54:55.553Z,1000.45
2017-12-31T13:56:23.057Z,1000.47
2017-12-31T13:57:49.979Z,1000.49
2017-12-31T13:59:17.076Z,1000.52
2017-12-31T14:00:44.361Z,1000.53
2017-12-31T14:02:11.721Z,1000.49
2017-12-31T14:03:38.890Z,1000.46
2017-12-31T14:05:06.111Z,1000.42
2017-12-31T14:06:33.435Z,1000.37
2017-12-31T14:08:00.591Z,1000.34
2017-12-31T14:09:27.708Z,1000.32
2017-12-31T14:10:55.086Z,1000.29
2017-12-31T14:12:22.276Z,1000.27
2017-12-31T14:13:49.521Z,1000.24
2017-12-31T14:15:16.974Z,1000.24
2017-12-31T14:16:44.157Z,1000.21
2017-12-31T14:18:11.590Z,1000.14
2017-12-31T14:19:39.040Z,1000.20
2017-12-31T14:21:06.476Z,1000.23
2017-12-31T14:22:33.738Z,1000.17
2017-12-31T14:24:00.889Z,1000.20
2017-12-31T14:25:28.002Z,1000.17
2017-12-31T14:26:55.174Z,1000.19
2017-12-31T14:28:22.591Z,1000.21
2017-12-31T14:29:49.764Z,1000.22
2017-12-31T14:31:17.026Z,1000.20
2017-12-31T14:32:44.499Z,1000.22
2017-12-31T14:34:11.739Z,1000.20
2017-12-31T14:35:39.175Z,1000.19
2017-12-31T14:37:06.484Z,1000.18
2017-12-31T14:38:33.618Z,1000.17
2017-12-31T14:40:00.790Z,1000.13
2017-12-31T14:41:28.119Z,1000.17
2017-12-31T14:42:55.394Z,1000.15
2017-12-31T14:44:22.698Z,1000.08
2017-12-31T14:45:49.932Z,1000.07
2017-12-31T14:47:17.337Z,1000.07
2017-12-31T14:48:44.332Z,1000.09
2017-12-31T14:50:11.711Z,1000.08
2017-12-31T14:51:39.377Z,1000.11
2017-12-31T14:53:06.494Z,1000.05
2017-12-31T14:54:33.843Z,1000.00
2017-12-31T14:56:01.192Z,1000.00
2017-12-31T14:57:28.232Z,1000.08
2017-12-31T14:58:55.584Z,1000.09
2017-12-31T15:00:22.990Z,1000.05
2017-12-31T15:01:49.979Z,1000.06
2017-12-31T15:03:17.287Z,1000.03
2017-12-31T15:04:44.517Z,999.99
2017-12-31T15:06:11.937Z,1000.00
2017-12-31T15:07:39.203Z,1000.00
2017-12-31T15:09:06.510Z,999.99
2017-12-31T15:10:33.708Z,999.92
2017-12-31T15:12:01.379Z,999.91
2017-12-31T15:13:28.728Z,999.91
2017-12-31T15:14:56.154Z,999.89
2017-12-31T15:16:23.411Z,999.96
2017-12-31T15:17:50.609Z,999.93
2017-12-31T15:19:17.562Z,999.96
2017-12-31T15:20:44.718Z,999.91
2017-12-31T15:22:12.121Z,999.88
2017-12-31T15:23:39.511Z,999.86
2017-12-31T15:25:07.108Z,999.85
2017-12-31T15:26:34.351Z,999.83
2017-12-31T15:28:01.696Z,999.75
2017-12-31T15:29:28.869Z,999.73
2017-12-31T15:30:56.207Z,999.67
2017-12-31T15:32:23.402Z,999.72
2017-12-31T15:33:50.634Z,999.69
2017-12-31T15:35:17.866Z,999.70
2017-12-31T15:36:45.153Z,999.68
2017-12-31T15:38:12.269Z,999.66
2017-12-31T15:39:39.572Z,999.63
2017-12-31T15:41:06.996Z,999.68
2017-12-31T15:42:34.405Z,999.63
2017-12-31T15:44:01.358Z,999.64
2017-12-31T15:45:28.668Z,999.65
2017-12-31T15:46:55.896Z,999.64
2017-12-31T15:48:23.325Z,999.60
2017-12-31T15:49:50.604Z,999.58
2017-12-31T15:51:17.664Z,999.57
2017-12-31T15:52:44.878Z,999.57
2017-12-31T15:54:12.407Z,999.60
2017-12-31T15:55:39.587Z,999.55
2017-12-31T15:57:06.729Z,999.64
2017-12-31T15:58:33.959Z,999.67
2017-12-31T16:00:01.194Z,999.63
2017-12-31T16:01:28.472Z,999.65
2017-12-31T16:02:55.751Z,999.63
2017-12-31T16:04:23.071Z,999.58
2017-12-31T16:05:50.419Z,999.61
2017-12-31T16:07:17.691Z,999.60
2017-12-31T16:08:44.662Z,999.55
2017-12-31T16:10:12.080Z,999.53
2017-12-31T16:11:39.403Z,999.52
2017-12-31T16:13:06.796Z,999.53
2017-12-31T16:14:34.007Z,999.50
2017-12-31T16:16:01.394Z,999.47
2017-12-31T16:17:28.836Z,999.53
2017-12-31T16:18:56.321Z,999.51
2017-12-31T16:20:23.822Z,999.54
2017-12-31T16:21:51.102Z,999.57
2017-12-31T16:23:18.461Z,999.52
2017-12-31T16:24:45.824Z,999.54
2017-12-31T16:26:13.090Z,999.52
2017-12-31T16:27:40.522Z,999.51
2017-12-31T16:29:07.801Z,999.52
2017-12-31T16:30:35.152Z,999.55
2017-12-31T16:32:02.635Z,999.57
2017-12-31T16:33:29.918Z,999.58
2017-12-31T16:34:57.085Z,999.64
2017-12-31T16:36:24.478Z,999.55
2017-12-31T16:37:51.755Z,999.57
2017-12-31T16:39:19.093Z,999.57
2017-12-31T16:40:46.278Z,999.58
2017-12-31T16:42:13.469Z,999.55
2017-12-31T16:43:40.601Z,999.53
2017-12-31T16:45:07.903Z,999.52
2017-12-31T16:46:35.297Z,999.49
2017-12-31T16:48:02.631Z,999.46
2017-12-31T16:49:29.993Z,999.50
2017-12-31T16:50:57.474Z,999.44
2017-12-31T16:52:24.907Z,999.45
2017-12-31T16:53:52.211Z,999.41
2017-12-31T16:55:19.720Z,999.45
2017-12-31T16:56:47.043Z,999.47
2017-12-31T16:58:14.343Z,999.45
2017-12-31T16:59:41.882Z,999.52
2017-12-31T17:01:09.040Z,999.43
2017-12-31T17:02:36.346Z,999.41
2017-12-31T17:04:03.528Z,999.43
2017-12-31T17:05:30.940Z,999.44
2017-12-31T17:06:58.258Z,999.42
2017-12-31T17:08:25.619Z,999.41
2017-12-31T17:09:52.950Z,999.37
2017-12-31T17:11:20.019Z,999.37
2017-12-31T17:12:47.446Z,999.43
2017-12-31T17:14:14.760Z,999.43
2017-12-31T17:15:42.108Z,999.49
2017-12-31T17:17:09.445Z,999.46
2017-12-31T17:18:36.829Z,999.51
2017-12-31T17:20:03.947Z,999.53
2017-12-31T17:21:31.382Z,999.47
2017-12-31T17:22:58.792Z,999.46
2017-12-31T17:24:26.257Z,999.48
2017-12-31T17:25:53.573Z,999.48
2017-12-31T17:27:20.861Z,999.50
2017-12-31T17:28:47.998Z,999.55
2017-12-31T17:30:15.506Z,999.55
2017-12-31T17:31:42.715Z,999.49
2017-12-31T17:33:10.126Z,999.49
2017-12-31T17:34:37.445Z,999.57
2017-12-31T17:36:04.790Z,999.51
2017-12-31T17:37:32.215Z,999.46
2017-12-31T17:38:59.730Z,999.46
2017-12-31T17:40:27.227Z,999.41